Time;durP1;ratioP1;P1;durP2;ratioP2;P2;SDS_P1;SDS_P2;PMS_P1;PMS_P2;Temp;Humidity;BMP_temperature;BMP_pressure;BME280_temperature;BME280_humidity;BME280_pressure;Samples;Min_cycle;Max_cycle;Signal;HPM_P1;HPM_P2
2022/04/27 00:05:19;;;;;;;1.23;0.50;;;12.60;99.90;;;;;;5067661;28;20216;-90
2022/04/27 00:07:51;;;;;;;1.67;0.60;;;12.50;99.90;;;;;;5059245;28;20200;-90
2022/04/27 00:10:30;;;;;;;9.17;0.83;;;12.40;99.90;;;;;;5065569;28;20204;-91
2022/04/27 00:13:06;;;;;;;2.40;0.53;;;12.50;99.90;;;;;;5063176;28;20216;-91
2022/04/27 00:15:37;;;;;;;1.40;0.60;;;12.20;99.90;;;;;;5069489;28;20660;-91
2022/04/27 00:18:09;;;;;;;0.60;0.43;;;12.10;99.90;;;;;;5073665;28;20227;-89
2022/04/27 00:20:50;;;;;;;0.40;0.40;;;12.10;99.90;;;;;;5067325;28;20216;-90
2022/04/27 00:23:25;;;;;;;1.30;0.50;;;12.00;99.90;;;;;;5074920;28;20208;-90
2022/04/27 00:25:57;;;;;;;2.73;1.10;;;12.10;99.90;;;;;;5076908;28;20223;-90
2022/04/27 00:28:31;;;;;;;1.17;0.57;;;12.20;99.90;;;;;;5073353;28;20226;-92
2022/04/27 00:31:03;;;;;;;0.97;0.63;;;12.40;99.90;;;;;;5067830;28;20212;-91
2022/04/27 00:33:34;;;;;;;2.10;0.50;;;12.20;99.90;;;;;;5074037;28;20213;-91
2022/04/27 00:36:06;;;;;;;1.37;0.60;;;12.00;99.90;;;;;;5074847;28;20204;-90
2022/04/27 00:38:38;;;;;;;1.73;0.80;;;12.20;99.90;;;;;;5074108;28;20283;-91
2022/04/27 00:41:11;;;;;;;0.40;0.40;;;12.30;99.90;;;;;;5075185;28;20223;-91
2022/04/27 00:43:45;;;;;;;1.47;0.70;;;12.00;99.90;;;;;;5075462;28;20212;-90
2022/04/27 00:46:16;;;;;;;2.83;0.77;;;11.80;99.90;;;;;;5076285;28;20207;-90
2022/04/27 00:48:47;;;;;;;0.87;0.50;;;11.70;99.90;;;;;;5075481;28;20259;-91
2022/04/27 00:51:21;;;;;;;2.13;1.30;;;12.00;99.90;;;;;;5070108;28;20201;-92
2022/04/27 00:53:58;;;;;;;3.60;3.40;;;12.20;99.90;;;;;;5064843;28;20262;-92
2022/04/27 00:56:32;;;;;;;0.87;0.50;;;12.00;99.90;;;;;;5071216;28;20206;-92
2022/04/27 00:59:07;;;;;;;12.70;9.83;;;12.20;99.90;;;;;;5072798;28;20212;-91
2022/04/27 01:01:40;;;;;;;3.60;2.30;;;12.30;99.90;;;;;;5062879;28;20230;-92
2022/04/27 01:04:12;;;;;;;1.77;0.40;;;12.80;99.90;;;;;;5063068;28;20240;-91
2022/04/27 01:06:43;;;;;;;1.20;0.50;;;12.70;99.90;;;;;;5062491;28;20230;-90
2022/04/27 01:09:18;;;;;;;0.90;0.50;;;12.10;99.90;;;;;;5063641;28;20212;-88
2022/04/27 01:11:50;;;;;;;0.57;0.57;;;11.80;99.90;;;;;;5061747;28;20207;-91
2022/04/27 01:14:23;;;;;;;0.80;0.50;;;11.70;99.90;;;;;;5064373;28;20231;-90
2022/04/27 01:16:55;;;;;;;1.77;0.40;;;11.40;99.90;;;;;;5062076;28;20292;-90
2022/04/27 01:19:27;;;;;;;1.60;0.50;;;11.50;99.90;;;;;;5061456;28;20212;-90
2022/04/27 01:22:02;;;;;;;2.43;0.80;;;11.60;99.90;;;;;;5061987;28;20242;-91
2022/04/27 01:24:33;;;;;;;0.73;0.33;;;11.60;99.90;;;;;;5062654;28;20203;-91
2022/04/27 01:27:06;;;;;;;3.43;0.70;;;11.80;99.90;;;;;;5060867;28;20216;-92
2022/04/27 01:29:37;;;;;;;5.33;0.70;;;12.20;99.90;;;;;;5061219;28;20207;-93
2022/04/27 01:32:08;;;;;;;2.17;0.80;;;12.70;99.90;;;;;;5061221;28;20689;-91
2022/04/27 01:34:39;;;;;;;3.90;0.87;;;12.80;99.90;;;;;;5062027;28;20260;-92
2022/04/27 01:40:00;;;;;;;1.90;0.70;;;12.90;99.90;;;;;;5060515;28;20269;-91
2022/04/27 01:42:32;;;;;;;1.27;0.60;;;13.40;99.90;;;;;;5059488;28;20204;-91
2022/04/27 01:45:04;;;;;;;1.63;0.70;;;14.00;99.90;;;;;;5062907;28;20269;-91
2022/04/27 01:47:36;;;;;;;3.10;1.10;;;13.90;99.90;;;;;;5068838;28;20212;-91
2022/04/27 01:50:09;;;;;;;2.00;0.90;;;12.80;99.90;;;;;;5061971;28;20532;-91
2022/04/27 01:55:33;;;;;;;1.57;0.60;;;13.80;99.90;;;;;;5078976;28;20266;-91
2022/04/27 01:58:04;;;;;;;1.80;0.83;;;14.10;99.90;;;;;;5078647;28;20204;-90
2022/04/27 02:00:36;;;;;;;2.73;0.60;;;13.40;99.90;;;;;;5078193;28;20242;-91
2022/04/27 02:03:08;;;;;;;2.70;0.70;;;12.90;99.90;;;;;;5077433;28;20219;-91
2022/04/27 02:05:41;;;;;;;1.77;0.70;;;12.70;99.90;;;;;;5067675;28;20216;-90
2022/04/27 02:08:15;;;;;;;2.90;0.97;;;12.40;99.90;;;;;;5070529;28;20205;-91
2022/04/27 02:10:47;;;;;;;2.03;0.63;;;12.20;99.90;;;;;;5074024;28;20208;-91
2022/04/27 02:13:19;;;;;;;2.00;0.80;;;12.10;99.90;;;;;;5080116;28;20192;-91
2022/04/27 02:15:50;;;;;;;5.60;0.80;;;11.90;99.90;;;;;;5079875;28;20215;-89
2022/04/27 02:21:05;;;;;;;1.93;0.70;;;11.80;99.90;;;;;;5182598;22;20267;-92
2022/04/27 02:23:40;;;;;;;2.50;1.33;;;11.60;99.90;;;;;;5073267;28;20215;-92
2022/04/27 02:26:13;;;;;;;3.33;0.73;;;11.50;99.90;;;;;;5074895;28;20620;-92
2022/04/27 02:28:47;;;;;;;1.47;0.77;;;11.40;99.90;;;;;;5072925;28;20208;-91
2022/04/27 02:31:18;;;;;;;1.40;0.60;;;11.30;99.90;;;;;;5073906;28;20234;-91
2022/04/27 02:33:50;;;;;;;1.60;0.80;;;11.20;99.90;;;;;;5075501;28;20274;-91
2022/04/27 02:36:22;;;;;;;3.13;0.60;;;11.10;99.90;;;;;;5076749;28;20232;-91
2022/04/27 02:39:07;;;;;;;1.97;0.80;;;11.00;99.90;;;;;;5264258;22;20265;-91
2022/04/27 02:41:40;;;;;;;1.03;0.67;;;10.90;99.90;;;;;;5055147;28;20236;-92
2022/04/27 02:44:12;;;;;;;1.77;0.70;;;10.80;99.90;;;;;;5053545;28;20208;-92
2022/04/27 02:46:44;;;;;;;0.77;0.60;;;10.60;99.90;;;;;;5034249;28;20220;-92
2022/04/27 02:52:18;;;;;;;2.00;0.90;;;10.60;99.90;;;;;;4972487;28;20215;-92
2022/04/27 02:54:53;;;;;;;4.50;1.00;;;10.50;99.90;;;;;;5018504;28;20240;-90
2022/04/27 02:57:24;;;;;;;1.73;1.00;;;10.40;99.90;;;;;;5032656;28;20205;-90
2022/04/27 02:59:56;;;;;;;2.03;1.13;;;10.30;99.90;;;;;;5033558;28;20209;-91
2022/04/27 03:02:41;;;;;;;1.30;0.83;;;10.20;99.90;;;;;;5024204;28;20210;-91
2022/04/27 03:05:17;;;;;;;1.97;1.00;;;10.20;99.90;;;;;;5046107;28;20216;-91
2022/04/27 03:07:49;;;;;;;1.53;0.70;;;10.10;99.90;;;;;;5042910;28;20204;-90
2022/04/27 03:10:32;;;;;;;1.73;0.87;;;10.10;99.90;;;;;;5049662;28;20225;-89
2022/04/27 03:13:03;;;;;;;1.13;0.80;;;9.90;99.90;;;;;;5054563;28;20209;-90
2022/04/27 03:15:48;;;;;;;1.83;0.80;;;9.80;99.90;;;;;;5055537;28;20231;-90
2022/04/27 03:26:54;;;;;;;2.57;1.00;;;9.60;99.90;;;;;;5095415;28;20246;-90
2022/04/27 03:29:26;;;;;;;1.40;0.90;;;9.50;99.90;;;;;;5098334;28;20188;-91
2022/04/27 03:32:02;;;;;;;1.50;1.10;;;9.40;99.90;;;;;;5092217;28;20211;-90
2022/04/27 03:34:46;;;;;;;0.87;0.80;;;9.40;99.90;;;;;;5093535;28;20210;-90
2022/04/27 03:37:18;;;;;;;2.23;0.90;;;9.30;99.90;;;;;;5087662;28;20235;-91
2022/04/27 03:39:49;;;;;;;2.60;1.30;;;9.30;99.90;;;;;;5087530;28;20200;-90
2022/04/27 03:42:23;;;;;;;1.63;1.17;;;9.30;99.90;;;;;;5078982;28;20227;-91
2022/04/27 03:44:55;;;;;;;4.43;1.17;;;9.20;99.90;;;;;;5083726;28;20721;-91
2022/04/27 03:47:27;;;;;;;1.77;0.90;;;9.10;99.90;;;;;;5083452;28;20231;-90
2022/04/27 03:50:08;;;;;;;3.47;1.00;;;9.10;99.90;;;;;;5092283;28;20203;-90
2022/04/27 03:52:40;;;;;;;1.97;1.30;;;9.10;99.90;;;;;;5086269;28;20211;-92
2022/04/27 03:55:15;;;;;;;2.90;1.53;;;9.10;99.90;;;;;;5092000;28;20223;-91
2022/04/27 03:57:49;;;;;;;2.57;1.43;;;9.10;99.90;;;;;;5081102;28;20207;-91
2022/04/27 04:00:23;;;;;;;2.67;1.50;;;9.00;99.90;;;;;;5085990;28;20670;-91
2022/04/27 04:02:54;;;;;;;2.70;1.20;;;9.00;99.90;;;;;;5090331;28;20209;-91
2022/04/27 04:05:34;;;;;;;3.23;1.10;;;9.10;99.90;;;;;;5094435;28;20204;-91
2022/04/27 04:08:07;;;;;;;2.93;1.30;;;9.10;99.90;;;;;;5091815;28;20216;-90
2022/04/27 04:10:45;;;;;;;1.30;1.10;;;9.00;99.90;;;;;;5095376;28;20205;-90
2022/04/27 04:13:19;;;;;;;1.53;1.30;;;9.00;99.90;;;;;;5095430;28;20238;-91
2022/04/27 04:15:51;;;;;;;2.17;1.00;;;9.00;99.90;;;;;;5092000;28;20231;-91
2022/04/27 04:18:22;;;;;;;1.10;0.90;;;8.90;99.90;;;;;;5079703;28;20595;-92
2022/04/27 04:20:53;;;;;;;1.30;0.50;;;9.00;99.90;;;;;;5077471;28;20258;-89
2022/04/27 04:23:24;;;;;;;1.07;0.83;;;9.00;99.90;;;;;;5084248;28;20211;-90
2022/04/27 04:29:03;;;;;;;4.40;1.00;;;9.10;99.90;;;;;;5067025;28;20207;-91
2022/04/27 04:31:34;;;;;;;0.67;0.60;;;9.10;99.90;;;;;;5058685;28;20228;-91
2022/04/27 04:34:11;;;;;;;1.60;0.80;;;9.10;99.90;;;;;;5072213;28;20558;-91
2022/04/27 04:36:42;;;;;;;1.80;0.93;;;9.10;99.90;;;;;;5078350;28;20277;-92
2022/04/27 04:39:13;;;;;;;2.00;1.10;;;9.00;99.90;;;;;;5076973;28;20261;-91
2022/04/27 04:41:44;;;;;;;4.30;0.90;;;8.90;99.90;;;;;;5077397;28;20245;-92
2022/04/27 04:44:18;;;;;;;3.60;0.80;;;8.90;99.90;;;;;;5077520;28;20203;-92
2022/04/27 04:47:01;;;;;;;1.23;0.83;;;8.90;99.90;;;;;;5078568;28;20211;-91
2022/04/27 04:49:33;;;;;;;1.90;0.90;;;8.80;99.90;;;;;;5062910;28;20228;-92
2022/04/27 04:52:04;;;;;;;2.27;0.93;;;8.80;99.90;;;;;;5059719;28;20276;-92
2022/04/27 04:54:36;;;;;;;2.77;0.83;;;8.80;99.90;;;;;;5062913;28;20204;-91
2022/04/27 04:59:55;;;;;;;1.93;0.90;;;8.70;99.90;;;;;;5058211;28;20287;-91
2022/04/27 05:02:26;;;;;;;2.57;1.00;;;8.50;99.90;;;;;;5082804;22;20264;-92
2022/04/27 05:04:57;;;;;;;0.83;0.73;;;8.50;99.90;;;;;;5039320;28;20212;-92
2022/04/27 05:07:29;;;;;;;3.17;0.93;;;8.40;99.90;;;;;;5017008;28;20278;-91
2022/04/27 05:10:01;;;;;;;1.63;1.00;;;8.30;99.90;;;;;;5019456;28;20221;-91
2022/04/27 05:12:34;;;;;;;2.57;0.80;;;8.30;99.90;;;;;;5030118;28;20225;-91
2022/04/27 05:15:09;;;;;;;1.23;0.80;;;8.30;99.90;;;;;;5036772;28;20648;-92
2022/04/27 05:17:41;;;;;;;1.27;0.90;;;8.20;99.90;;;;;;5036093;28;20267;-91
2022/04/27 05:20:14;;;;;;;1.70;0.93;;;8.20;99.90;;;;;;5038513;28;20208;-91
2022/04/27 05:22:45;;;;;;;3.43;0.97;;;8.20;99.90;;;;;;5037440;28;20212;-91
2022/04/27 05:25:18;;;;;;;2.53;0.93;;;8.20;99.90;;;;;;5039586;28;20271;-91
2022/04/27 05:27:51;;;;;;;2.67;1.03;;;8.20;99.90;;;;;;5037086;28;20204;-91
2022/04/27 05:33:13;;;;;;;1.90;0.90;;;8.10;99.90;;;;;;5038327;28;20634;-91
2022/04/27 05:35:44;;;;;;;3.83;1.30;;;7.90;99.90;;;;;;5039833;28;20315;-90
2022/04/27 05:38:18;;;;;;;3.07;1.80;;;7.80;99.90;;;;;;5044434;28;20228;-90
2022/04/27 05:40:49;;;;;;;2.73;1.27;;;7.70;99.90;;;;;;5037698;28;20694;-90
2022/04/27 05:43:22;;;;;;;4.60;1.40;;;7.60;99.90;;;;;;5036520;28;20247;-89
2022/04/27 05:45:56;;;;;;;2.00;1.10;;;7.60;99.90;;;;;;5038422;28;20255;-91
2022/04/27 05:48:29;;;;;;;1.40;1.10;;;7.50;99.90;;;;;;5035987;28;20252;-91
2022/04/27 05:51:01;;;;;;;2.60;0.93;;;7.50;99.90;;;;;;5036880;28;20569;-91
2022/04/27 05:53:33;;;;;;;2.80;0.90;;;7.50;99.90;;;;;;5040254;28;20211;-91
2022/04/27 05:56:05;;;;;;;2.60;1.00;;;7.40;99.90;;;;;;5037396;28;20236;-91
2022/04/27 05:58:36;;;;;;;1.93;0.87;;;7.40;99.90;;;;;;5035971;28;20654;-89
2022/04/27 06:01:09;;;;;;;1.43;0.80;;;7.30;99.90;;;;;;5037249;28;20263;-91
2022/04/27 06:03:40;;;;;;;2.17;0.83;;;7.30;99.90;;;;;;5026919;28;20255;-90
2022/04/27 06:06:12;;;;;;;1.53;0.83;;;7.20;99.90;;;;;;5018033;28;20214;-90
2022/04/27 06:08:43;;;;;;;3.90;0.87;;;7.20;99.90;;;;;;5015730;28;20735;-91
2022/04/27 06:13:51;;;;;;;4.43;1.40;;;7.20;99.90;;;;;;5206895;23;20251;-91
2022/04/27 06:16:25;;;;;;;3.17;1.30;;;7.20;99.90;;;;;;5037263;28;20232;-89
2022/04/27 06:18:56;;;;;;;2.00;1.37;;;7.10;99.90;;;;;;5036937;28;20204;-89
2022/04/27 06:21:31;;;;;;;2.53;1.40;;;7.10;99.90;;;;;;5043731;28;20209;-88
2022/04/27 06:24:05;;;;;;;2.10;1.30;;;7.00;99.90;;;;;;5046234;28;20284;-91
2022/04/27 06:26:37;;;;;;;2.70;1.60;;;7.00;99.90;;;;;;5053428;28;20192;-90
2022/04/27 06:29:12;;;;;;;2.43;1.33;;;7.00;99.90;;;;;;5051803;28;20258;-91
2022/04/27 06:31:46;;;;;;;1.33;1.03;;;7.00;99.90;;;;;;5050777;28;20226;-92
2022/04/27 06:34:17;;;;;;;3.67;1.20;;;6.90;99.90;;;;;;5038344;28;20232;-91
2022/04/27 06:36:49;;;;;;;2.80;0.80;;;6.90;99.90;;;;;;5037948;28;20216;-91
2022/04/27 06:39:20;;;;;;;2.77;0.97;;;6.80;99.90;;;;;;5038164;28;20246;-89
2022/04/27 06:41:51;;;;;;;2.27;1.10;;;6.80;99.90;;;;;;5041101;28;20259;-91
2022/04/27 06:44:23;;;;;;;1.47;0.93;;;6.80;99.90;;;;;;5050522;28;20282;-91
2022/04/27 06:46:56;;;;;;;2.53;1.00;;;6.70;99.90;;;;;;5040414;28;20260;-91
2022/04/27 06:49:28;;;;;;;2.83;1.23;;;6.70;99.90;;;;;;5039729;28;20212;-91
2022/04/27 06:51:59;;;;;;;4.33;1.57;;;6.60;99.90;;;;;;5040999;28;20311;-91
2022/04/27 06:54:30;;;;;;;1.90;1.30;;;6.60;99.90;;;;;;5040126;28;20320;-90
2022/04/27 06:57:01;;;;;;;2.40;1.40;;;6.50;99.90;;;;;;5040326;28;20645;-90
2022/04/27 06:59:33;;;;;;;4.00;1.37;;;6.50;99.90;;;;;;5040612;28;20215;-90
2022/04/27 07:02:09;;;;;;;2.87;1.20;;;6.50;99.90;;;;;;5039091;28;20292;-89
2022/04/27 07:04:48;;;;;;;4.50;1.23;;;6.40;99.90;;;;;;5040997;28;20265;-90
2022/04/27 07:07:19;;;;;;;7.53;1.23;;;6.30;99.90;;;;;;5044475;28;20231;-89
2022/04/27 07:09:51;;;;;;;2.87;0.90;;;6.40;99.90;;;;;;5040675;28;20240;-90
2022/04/27 07:12:22;;;;;;;2.70;1.10;;;6.40;99.90;;;;;;5035908;28;20260;-88
2022/04/27 07:14:54;;;;;;;2.47;1.03;;;6.40;99.90;;;;;;5020900;28;20281;-90
2022/04/27 07:17:27;;;;;;;1.10;0.80;;;6.40;99.90;;;;;;5019275;28;20264;-90
2022/04/27 07:19:58;;;;;;;2.40;1.10;;;6.40;99.90;;;;;;5020119;28;20324;-90
2022/04/27 07:22:30;;;;;;;2.73;1.70;;;6.40;99.90;;;;;;5020604;28;20564;-91
2022/04/27 07:25:01;;;;;;;1.57;1.00;;;6.40;99.90;;;;;;5019135;28;20236;-90
2022/04/27 07:27:33;;;;;;;3.20;1.00;;;6.40;99.90;;;;;;5018913;28;20211;-90
2022/04/27 07:30:05;;;;;;;2.57;0.80;;;6.40;99.90;;;;;;5022095;28;20214;-89
2022/04/27 07:32:38;;;;;;;5.30;1.00;;;6.40;99.90;;;;;;5034620;28;20198;-90
2022/04/27 07:35:10;;;;;;;1.53;0.90;;;6.30;99.90;;;;;;5058435;28;20212;-90
2022/04/27 07:37:44;;;;;;;3.53;1.10;;;6.30;99.90;;;;;;5056717;28;20229;-90
2022/04/27 07:40:16;;;;;;;1.30;0.90;;;6.20;99.90;;;;;;5045999;28;20251;-91
2022/04/27 07:42:48;;;;;;;1.80;0.73;;;6.20;99.90;;;;;;5049892;28;20219;-90
2022/04/27 07:45:20;;;;;;;3.77;1.13;;;6.10;99.90;;;;;;5055478;28;20211;-91
2022/04/27 07:47:54;;;;;;;1.30;1.00;;;6.00;99.90;;;;;;5049713;28;20227;-91
2022/04/27 07:50:26;;;;;;;3.00;1.03;;;6.00;99.90;;;;;;5057093;28;20208;-91
2022/04/27 07:52:58;;;;;;;3.03;1.10;;;6.00;99.90;;;;;;5089220;22;20236;-91
2022/04/27 07:55:31;;;;;;;1.40;0.87;;;5.90;99.90;;;;;;5060268;28;20215;-91
2022/04/27 07:58:03;;;;;;;1.70;0.77;;;5.90;99.90;;;;;;5061035;28;20240;-90
2022/04/27 08:00:34;;;;;;;4.10;1.40;;;5.80;99.90;;;;;;5060299;28;20230;-91
2022/04/27 08:03:07;;;;;;;1.60;0.93;;;5.80;99.90;;;;;;5060056;28;20249;-91
2022/04/27 08:05:39;;;;;;;2.90;1.00;;;5.80;99.90;;;;;;5059524;28;20662;-90
2022/04/27 08:08:10;;;;;;;2.37;0.80;;;5.70;99.90;;;;;;5072294;28;20212;-92
2022/04/27 08:10:47;;;;;;;1.73;0.80;;;5.70;99.90;;;;;;5078170;28;20203;-91
2022/04/27 08:13:18;;;;;;;4.20;0.87;;;5.70;99.90;;;;;;5073503;28;20755;-91
2022/04/27 08:15:50;;;;;;;5.40;0.80;;;5.60;99.90;;;;;;5069765;28;20189;-91
2022/04/27 08:18:27;;;;;;;2.83;1.03;;;5.60;99.90;;;;;;5075331;28;20224;-91
2022/04/27 08:21:21;;;;;;;2.00;0.97;;;5.50;99.90;;;;;;5068272;28;20196;-90
2022/04/27 08:23:52;;;;;;;3.67;0.97;;;5.50;99.90;;;;;;5064605;28;20254;-90
2022/04/27 08:26:23;;;;;;;4.10;0.97;;;5.50;99.90;;;;;;5068323;28;20215;-91
2022/04/27 08:28:54;;;;;;;4.80;1.00;;;5.30;99.90;;;;;;5067972;28;20204;-90
2022/04/27 08:31:25;;;;;;;1.60;1.10;;;5.20;99.90;;;;;;5065663;28;20223;-90
2022/04/27 08:33:59;;;;;;;1.33;1.03;;;5.20;99.90;;;;;;5052540;28;20241;-91
2022/04/27 08:36:33;;;;;;;2.17;1.03;;;5.10;99.90;;;;;;5039307;28;20255;-90
2022/04/27 08:39:08;;;;;;;2.77;0.93;;;5.10;99.90;;;;;;5055929;28;20236;-89
2022/04/27 08:41:41;;;;;;;2.00;1.00;;;5.10;99.90;;;;;;6039521;22;20215;-89
2022/04/27 08:44:12;;;;;;;2.43;0.90;;;5.10;99.90;;;;;;5055478;28;20217;-89
2022/04/27 08:46:45;;;;;;;2.13;1.10;;;5.10;99.90;;;;;;5052341;28;20220;-91
2022/04/27 08:49:18;;;;;;;2.67;1.13;;;5.00;99.90;;;;;;5037765;28;20308;-90
2022/04/27 08:51:50;;;;;;;3.70;1.03;;;5.10;99.90;;;;;;5038883;28;20248;-91
2022/04/27 08:54:21;;;;;;;3.60;1.00;;;5.10;99.90;;;;;;5038114;28;20209;-90
2022/04/27 08:56:53;;;;;;;2.30;0.90;;;5.10;99.90;;;;;;5039926;28;20229;-90
2022/04/27 08:59:24;;;;;;;2.93;1.00;;;5.10;99.90;;;;;;5044332;28;20251;-91
2022/04/27 09:01:56;;;;;;;3.10;1.13;;;5.10;99.90;;;;;;5037586;28;20236;-89
2022/04/27 09:04:30;;;;;;;1.87;0.90;;;5.00;99.90;;;;;;5037249;28;20201;-90
2022/04/27 09:07:20;;;;;;;1.57;1.03;;;5.00;99.90;;;;;;5041502;28;20234;-90
2022/04/27 09:09:51;;;;;;;2.60;1.03;;;5.00;99.90;;;;;;5040716;28;20616;-90
2022/04/27 09:12:23;;;;;;;1.53;0.90;;;5.10;99.90;;;;;;5038674;28;20248;-91
2022/04/27 09:15:04;;;;;;;1.70;1.10;;;5.10;99.90;;;;;;5022662;28;20229;-91
2022/04/27 09:23:24;;;;;;;1.03;0.90;;;5.10;99.90;;;;;;5018132;28;20272;-89
2022/04/27 09:25:57;;;;;;;2.63;0.90;;;5.00;99.90;;;;;;5018027;28;20222;-90
2022/04/27 09:28:33;;;;;;;3.30;1.03;;;5.00;99.90;;;;;;5016682;28;20219;-90
2022/04/27 09:31:07;;;;;;;4.00;0.93;;;5.00;99.90;;;;;;5017532;28;20331;-90
2022/04/27 09:33:39;;;;;;;3.23;1.13;;;4.90;99.90;;;;;;5027264;28;20220;-90
2022/04/27 09:36:33;;;;;;;6.03;1.03;;;5.00;99.90;;;;;;5037416;28;20258;-89
2022/04/27 09:39:09;;;;;;;3.13;1.07;;;5.00;99.90;;;;;;5039172;28;20276;-91
2022/04/27 09:41:46;;;;;;;1.57;0.90;;;5.00;99.90;;;;;;5037262;28;20209;-91
2022/04/27 09:44:30;;;;;;;2.30;1.10;;;5.00;99.90;;;;;;5036873;28;20291;-91
2022/04/27 09:47:04;;;;;;;1.67;0.70;;;4.90;99.90;;;;;;5037062;28;20620;-90
2022/04/27 09:49:37;;;;;;;2.03;1.10;;;4.90;99.90;;;;;;5036364;28;20220;-89
2022/04/27 09:52:10;;;;;;;1.60;1.00;;;4.80;99.90;;;;;;5036795;28;20228;-90
2022/04/27 09:54:45;;;;;;;4.20;0.77;;;4.90;99.90;;;;;;5039803;28;20193;-91
2022/04/27 09:57:19;;;;;;;1.47;0.73;;;4.90;99.90;;;;;;5036832;28;20236;-90
2022/04/27 09:59:51;;;;;;;2.07;0.77;;;4.90;99.90;;;;;;5037264;28;20232;-91
2022/04/27 10:02:30;;;;;;;3.07;0.90;;;4.90;99.90;;;;;;5036873;28;20209;-90
2022/04/27 10:05:03;;;;;;;3.43;0.90;;;4.80;99.90;;;;;;5036870;28;20209;-91
2022/04/27 10:07:37;;;;;;;2.37;1.07;;;4.90;99.90;;;;;;5036276;28;20228;-91
2022/04/27 10:10:11;;;;;;;2.03;1.00;;;4.90;99.90;;;;;;5036725;28;20254;-91
2022/04/27 10:12:42;;;;;;;1.67;0.90;;;4.80;99.90;;;;;;5036810;28;20200;-91
2022/04/27 10:15:14;;;;;;;2.67;1.23;;;4.80;99.90;;;;;;5040667;28;20282;-91
2022/04/27 10:17:45;;;;;;;1.03;0.80;;;4.70;99.90;;;;;;5039863;28;20205;-91
2022/04/27 10:20:36;;;;;;;2.07;1.10;;;4.70;99.90;;;;;;5040055;28;20247;-91
2022/04/27 10:23:32;;;;;;;3.53;0.70;;;4.50;99.90;;;;;;5040866;28;20656;-91
2022/04/27 10:26:16;;;;;;;2.80;1.17;;;4.40;99.90;;;;;;5039086;28;20205;-91
2022/04/27 10:28:50;;;;;;;2.00;1.00;;;4.40;99.90;;;;;;5040017;28;20209;-91
2022/04/27 10:32:02;;;;;;;2.23;1.10;;;4.20;99.90;;;;;;5040794;28;20267;-91
2022/04/27 10:34:34;;;;;;;3.03;1.10;;;4.10;99.90;;;;;;5039640;28;20208;-91
2022/04/27 10:37:06;;;;;;;3.77;1.07;;;4.10;99.90;;;;;;5041275;28;20263;-90
2022/04/27 10:39:43;;;;;;;2.17;1.10;;;4.20;99.90;;;;;;5039260;28;20233;-90
2022/04/27 10:42:32;;;;;;;6.40;1.50;;;4.20;99.90;;;;;;5040516;28;20244;-89
2022/04/27 10:45:10;;;;;;;2.20;1.27;;;4.20;99.90;;;;;;5040694;28;20213;-90
2022/04/27 10:47:44;;;;;;;3.27;1.13;;;4.30;99.90;;;;;;5044065;28;20256;-91
2022/04/27 10:50:33;;;;;;;2.47;1.30;;;4.30;99.90;;;;;;5058972;28;20189;-90
2022/04/27 10:53:22;;;;;;;2.93;1.00;;;4.40;99.90;;;;;;5058766;28;20202;-89
2022/04/27 10:56:01;;;;;;;3.57;1.20;;;4.40;99.90;;;;;;5048140;28;20200;-90
2022/04/27 10:58:34;;;;;;;2.77;0.80;;;4.40;99.90;;;;;;5044767;28;20690;-89
2022/04/27 11:01:21;;;;;;;3.80;1.20;;;4.40;99.90;;;;;;5042534;28;20292;-90
2022/04/27 11:04:03;;;;;;;1.60;0.80;;;4.40;99.90;;;;;;5041931;28;20217;-91
2022/04/27 11:07:19;;;;;;;1.97;1.30;;;4.40;99.90;;;;;;5040295;28;20208;-90
2022/04/27 11:10:12;;;;;;;2.77;1.33;;;4.50;99.90;;;;;;5040109;28;20239;-90
2022/04/27 11:12:48;;;;;;;2.67;1.27;;;4.60;99.90;;;;;;5040415;28;20213;-90
2022/04/27 11:15:33;;;;;;;4.20;1.30;;;4.60;99.90;;;;;;5033505;28;20201;-90
2022/04/27 11:18:06;;;;;;;3.90;1.30;;;4.70;99.90;;;;;;5039328;28;20323;-89
2022/04/27 11:20:39;;;;;;;3.00;1.07;;;4.70;99.90;;;;;;5039689;28;20569;-90
2022/04/27 11:23:23;;;;;;;2.47;0.97;;;4.60;99.90;;;;;;5039845;28;20213;-90
2022/04/27 11:25:55;;;;;;;1.50;0.80;;;4.60;99.90;;;;;;5039348;28;21100;-90
2022/04/27 11:28:30;;;;;;;1.90;0.90;;;4.60;99.90;;;;;;5038968;28;20213;-90
2022/04/27 11:31:02;;;;;;;4.77;1.20;;;4.50;99.90;;;;;;5039885;28;20208;-91
2022/04/27 11:33:39;;;;;;;2.90;1.33;;;4.50;99.90;;;;;;5030202;28;20214;-90
2022/04/27 11:36:22;;;;;;;0.90;0.70;;;4.60;99.90;;;;;;5020363;28;20245;-90
2022/04/27 11:38:55;;;;;;;2.50;1.00;;;4.60;99.90;;;;;;5020430;28;20209;-90
2022/04/27 11:41:26;;;;;;;2.83;1.10;;;4.60;99.90;;;;;;5019648;28;20272;-90
2022/04/27 11:43:59;;;;;;;2.30;1.00;;;4.60;99.90;;;;;;5020636;28;20213;-90
2022/04/27 11:46:38;;;;;;;1.80;0.90;;;4.60;99.90;;;;;;5019334;28;20209;-90
2022/04/27 11:49:11;;;;;;;2.53;1.13;;;4.60;99.90;;;;;;5018225;28;20210;-90
2022/04/27 11:51:48;;;;;;;2.93;1.13;;;4.70;99.90;;;;;;5019458;28;20621;-90
2022/04/27 11:54:33;;;;;;;2.03;1.20;;;4.70;99.90;;;;;;5017961;28;20236;-90
2022/04/27 11:57:07;;;;;;;2.57;1.07;;;4.70;99.90;;;;;;5018985;28;20221;-90
2022/04/27 11:59:49;;;;;;;1.80;1.00;;;4.80;99.90;;;;;;5017847;28;20287;-89
2022/04/27 12:02:25;;;;;;;9.60;2.57;;;4.80;99.90;;;;;;5018643;28;20217;-90
2022/04/27 12:05:01;;;;;;;3.93;1.40;;;4.80;99.90;;;;;;5019088;28;20221;-90
2022/04/27 12:07:37;;;;;;;3.07;1.00;;;4.70;99.90;;;;;;5017857;28;20263;-91
2022/04/27 12:10:12;;;;;;;2.20;1.00;;;4.70;99.90;;;;;;5019271;28;20284;-91
2022/04/27 12:12:44;;;;;;;3.73;0.90;;;4.70;99.90;;;;;;5019700;28;20263;-91
2022/04/27 12:15:17;;;;;;;1.73;0.90;;;4.70;99.90;;;;;;5018968;28;20205;-91
2022/04/27 12:17:52;;;;;;;4.30;1.50;;;4.70;99.90;;;;;;5024597;28;20253;-91
2022/04/27 12:20:37;;;;;;;1.70;0.90;;;4.70;99.90;;;;;;5019017;28;20244;-90
2022/04/27 12:23:09;;;;;;;2.90;1.03;;;4.70;99.90;;;;;;5021374;28;20211;-90
2022/04/27 12:25:43;;;;;;;8.27;1.30;;;4.70;99.90;;;;;;5038792;28;20307;-90
2022/04/27 12:28:16;;;;;;;4.33;1.40;;;4.60;99.90;;;;;;5037548;28;20262;-90
2022/04/27 12:30:53;;;;;;;3.37;1.30;;;4.70;99.90;;;;;;5039020;28;20677;-91
2022/04/27 12:33:25;;;;;;;5.23;1.23;;;4.60;99.90;;;;;;5038868;28;20212;-90
2022/04/27 12:39:02;;;;;;;8.93;1.33;;;4.70;99.90;;;;;;5037636;28;20217;-90
2022/04/27 12:41:35;;;;;;;4.43;1.40;;;4.70;99.90;;;;;;5038231;28;20739;-90
2022/04/27 12:44:07;;;;;;;2.70;1.20;;;4.80;99.90;;;;;;5038606;28;20213;-90
2022/04/27 12:47:01;;;;;;;5.57;1.70;;;4.80;99.90;;;;;;5040714;28;20201;-90
2022/04/27 12:49:35;;;;;;;3.60;1.20;;;4.80;99.90;;;;;;5038888;28;20239;-90
2022/04/27 12:52:18;;;;;;;2.90;1.40;;;4.90;99.90;;;;;;5039026;28;20209;-90
2022/04/27 12:54:50;;;;;;;2.53;1.33;;;4.90;99.90;;;;;;5039852;28;20208;-89
2022/04/27 12:57:22;;;;;;;2.63;1.43;;;5.00;99.90;;;;;;5038907;28;20743;-90
2022/04/27 12:59:58;;;;;;;3.33;1.10;;;5.00;99.90;;;;;;5039873;28;20208;-90
2022/04/27 13:02:31;;;;;;;4.40;1.30;;;5.00;99.90;;;;;;5053150;28;20227;-89
2022/04/27 13:05:03;;;;;;;4.93;1.10;;;5.00;99.90;;;;;;5056850;28;20276;-89
2022/04/27 13:07:35;;;;;;;3.60;1.53;;;5.00;99.90;;;;;;5053535;28;20248;-89
2022/04/27 13:12:56;;;;;;;4.13;1.80;;;4.90;99.90;;;;;;4698770;28;10000531;-90
2022/04/27 13:15:28;;;;;;;4.33;1.60;;;5.00;99.90;;;;;;5040870;28;20259;-91
2022/04/27 13:18:01;;;;;;;3.53;1.20;;;5.00;99.90;;;;;;5037162;28;20224;-90
2022/04/27 13:20:33;;;;;;;3.50;1.60;;;5.10;99.90;;;;;;5037087;28;20296;-90
2022/04/27 13:23:05;;;;;;;3.17;1.40;;;5.10;99.90;;;;;;5043296;28;20205;-90
2022/04/27 13:25:36;;;;;;;6.27;1.53;;;5.00;99.90;;;;;;5038498;28;20244;-90
2022/04/27 13:28:08;;;;;;;2.37;1.10;;;5.10;99.90;;;;;;5036944;28;20287;-90
2022/04/27 13:30:40;;;;;;;4.93;1.60;;;5.00;99.90;;;;;;5038237;28;20200;-90
2022/04/27 13:33:15;;;;;;;2.00;1.40;;;5.00;99.90;;;;;;5031855;28;20719;-90
2022/04/27 13:35:47;;;;;;;3.93;1.40;;;5.10;99.90;;;;;;5018040;28;20620;-90
2022/04/27 13:38:18;;;;;;;3.60;1.37;;;5.10;99.90;;;;;;5015714;28;20213;-90
2022/04/27 13:40:51;;;;;;;4.67;1.40;;;5.10;99.90;;;;;;5017226;28;20240;-91
2022/04/27 13:43:22;;;;;;;1.80;1.50;;;5.20;99.90;;;;;;5017006;28;20304;-91
2022/04/27 13:45:53;;;;;;;1.33;1.17;;;5.30;99.90;;;;;;5017366;28;20209;-92
2022/04/27 13:48:27;;;;;;;3.40;1.53;;;5.30;99.90;;;;;;5016536;28;20205;-89
2022/04/27 13:51:00;;;;;;;3.30;1.50;;;5.30;99.90;;;;;;5018497;28;20209;-89
2022/04/27 13:53:33;;;;;;;3.23;1.43;;;5.40;99.90;;;;;;5017946;28;20213;-90
2022/04/27 13:56:03;;;;;;;3.87;1.83;;;5.50;99.90;;;;;;5018757;28;20636;-89
2022/04/27 13:58:35;;;;;;;3.30;1.50;;;5.60;99.90;;;;;;5020264;28;20216;-88
2022/04/27 14:01:22;;;;;;;3.83;1.70;;;5.60;99.90;;;;;;5027903;28;20230;-88
2022/04/27 14:03:55;;;;;;;5.13;1.70;;;5.60;99.90;;;;;;5034935;28;20220;-88
2022/04/27 14:06:26;;;;;;;4.10;1.40;;;5.70;99.90;;;;;;5041233;28;20679;-90
2022/04/27 14:08:59;;;;;;;3.13;1.60;;;5.70;99.90;;;;;;5037884;28;20231;-90
2022/04/27 14:14:28;;;;;;;2.10;1.43;;;5.80;99.90;;;;;;5038305;28;20707;-90
2022/04/27 14:19:51;;;;;;;3.47;1.60;;;5.90;99.90;;;;;;5037701;28;20248;-90
2022/04/27 14:22:24;;;;;;;3.63;1.47;;;6.00;99.90;;;;;;5036630;28;20236;-90
2022/04/27 14:24:55;;;;;;;2.77;1.13;;;5.90;99.90;;;;;;5037692;28;20255;-91